Date,TemperatureHighF,TemperatureAvgF,TemperatureLowF,DewpointHighF,DewpointAvgF,DewpointLowF,HumidityHigh,HumidityAvg,HumidityLow,PressureMaxIn,PressureMinIn,WindSpeedMaxMPH,WindSpeedAvgMPH,GustSpeedMaxMPH,PrecipitationSumIn
2013-11-1,66,54,39,25,23,20,49,30,18,30.20,30.09,12,3,21,0.00
2013-11-2,69,54,40,33,24,-100,51,34,17,30.10,29.92,11,3,18,0.00
2013-11-3,55,47,41,41,36,32,90,66,48,29.96,29.85,11,5,22,0.00
2013-11-4,49,41,35,33,28,25,75,59,41,30.01,29.80,10,2,18,0.00
2013-11-5,55,45,30,27,12,6,78,32,15,30.24,30.01,9,3,22,0.00
2013-11-6,62,53,39,16,10,6,27,18,12,30.30,30.23,14,5,29,0.00
2013-11-7,67,55,45,25,18,14,34,24,15,30.24,30.10,11,2,22,0.00
2013-11-8,68,52,40,27,17,7,41,25,13,30.10,29.99,6,1,14,0.00
2013-11-9,71,54,39,15,8,-100,31,17,8,30.11,30.02,7,1,14,0.00
2013-11-10,68,55,44,16,13,9,28,19,12,30.15,30.10,14,3,23,0.00
2013-11-11,70,58,45,19,15,13,29,19,12,30.23,30.12,12,3,26,0.00
2013-11-12,70,60,47,31,19,13,46,21,12,30.31,30.21,7,1,14,0.00
2013-11-13,64,51,40,38,29,21,58,44,26,30.25,30.12,7,1,13,0.00
2013-11-14,71,54,42,37,30,23,60,42,16,30.12,29.84,8,1,15,0.00
2013-11-15,52,46,38,40,37,32,88,71,46,29.83,29.68,14,6,21,0.00
2013-11-16,53,44,38,37,30,-100,91,64,35,29.88,29.72,14,6,23,0.00
2013-11-17,59,46,34,35,32,29,81,61,33,30.08,29.89,8,2,14,0.00
2013-11-18,58,46,37,38,35,31,82,65,43,30.11,30.02,8,1,16,0.00
2013-11-19,52,44,39,41,38,35,89,79,64,30.06,29.94,9,2,13,0.00
2013-11-20,57,48,42,44,40,37,91,77,55,29.94,29.82,8,2,19,0.02
2013-11-21,50,44,37,46,42,34,97,91,75,29.91,29.79,9,3,16,0.82